createdAt,value
2023-01-30T00:03:37.939Z,74.40
2023-01-30T00:13:42.296Z,73.69
2023-01-30T00:23:45.230Z,73.35
2023-01-30T00:33:49.016Z,73.07
2023-01-30T00:44:23.408Z,73.03
2023-01-30T00:54:29.235Z,72.96
2023-01-30T01:04:31.693Z,72.76
2023-01-30T01:14:35.772Z,72.81
2023-01-30T01:24:38.341Z,72.15
2023-01-30T01:34:42.259Z,71.49
2023-01-30T01:45:03.593Z,71.97
2023-01-30T01:55:08.340Z,72.18
2023-01-30T02:05:12.701Z,71.74
2023-01-30T02:15:17.912Z,72.13
2023-01-30T02:25:34.619Z,71.67
2023-01-30T02:35:45.244Z,71.30
2023-01-30T02:45:52.815Z,70.99
2023-01-30T02:55:56.587Z,71.14
2023-01-30T03:06:07.258Z,70.79
2023-01-30T03:16:13.379Z,70.92
2023-01-30T03:26:19.018Z,71.00
2023-01-30T03:36:22.867Z,71.03
2023-01-30T03:46:25.355Z,73.48
2023-01-30T03:56:29.151Z,73.50
2023-01-30T04:06:31.537Z,72.18
2023-01-30T04:16:35.370Z,72.31
2023-01-30T04:26:37.827Z,72.59
2023-01-30T04:36:41.768Z,73.09
2023-01-30T04:46:44.208Z,73.62
2023-01-30T04:56:47.997Z,74.20
2023-01-30T05:06:50.387Z,74.23
2023-01-30T05:16:54.190Z,73.88
2023-01-30T05:26:56.683Z,74.78
2023-01-30T05:37:00.807Z,74.43
2023-01-30T05:47:03.217Z,74.20
2023-01-30T05:57:06.991Z,72.93
2023-01-30T06:07:09.455Z,72.22
2023-01-30T06:17:13.279Z,70.97
2023-01-30T06:27:15.716Z,69.97
2023-01-30T06:37:21.382Z,69.47
2023-01-30T06:47:23.856Z,68.06
2023-01-30T06:57:27.574Z,67.45
2023-01-30T07:07:30.336Z,66.67
2023-01-30T07:17:34.232Z,66.33
2023-01-30T07:27:36.658Z,66.17
2023-01-30T07:37:40.377Z,65.85
2023-01-30T07:47:42.843Z,66.20
2023-01-30T07:57:46.723Z,65.86
2023-01-30T08:07:49.129Z,65.82
2023-01-30T08:17:56.780Z,65.83
2023-01-30T08:28:00.168Z,65.28
2023-01-30T08:38:07.348Z,65.90
2023-01-30T08:48:10.856Z,65.37
2023-01-30T08:58:14.600Z,65.90
2023-01-30T09:08:18.828Z,66.49
2023-01-30T09:18:22.585Z,67.12
2023-01-30T09:28:24.987Z,68.50
2023-01-30T09:38:28.830Z,68.99
2023-01-30T09:48:34.180Z,69.25
2023-01-30T09:58:44.001Z,68.81
2023-01-30T10:08:52.348Z,68.08
2023-01-30T10:19:10.818Z,69.35
2023-01-30T10:29:16.376Z,67.29
2023-01-30T10:39:23.586Z,67.72
2023-01-30T10:49:30.680Z,67.79
2023-01-30T10:59:40.931Z,70.87
2023-01-30T11:09:44.562Z,70.99
2023-01-30T11:19:55.302Z,70.37
2023-01-30T11:30:04.443Z,70.58
2023-01-30T11:40:21.270Z,70.13
2023-01-30T11:50:28.551Z,71.16
2023-01-30T12:00:40.353Z,72.29
2023-01-30T12:10:43.864Z,73.56
2023-01-30T12:20:50.714Z,73.44
2023-01-30T12:30:56.596Z,73.23
2023-01-30T12:41:08.690Z,73.36
2023-01-30T12:51:18.710Z,73.34
2023-01-30T13:01:29.327Z,73.59
2023-01-30T13:11:46.275Z,74.31
2023-01-30T13:21:57.462Z,74.28
2023-01-30T13:32:02.751Z,74.47
2023-01-30T13:42:09.363Z,74.75
2023-01-30T13:52:18.926Z,75.45
2023-01-30T14:02:23.580Z,78.06
2023-01-30T14:12:27.065Z,77.57
2023-01-30T14:22:34.004Z,78.85
2023-01-30T14:32:51.316Z,79.53
2023-01-30T14:43:08.637Z,80.70
2023-01-30T14:53:14.505Z,81.09
2023-01-30T15:03:19.347Z,82.46
2023-01-30T15:13:33.127Z,82.46
2023-01-30T15:23:46.181Z,82.07
2023-01-30T15:33:51.015Z,82.46
2023-01-30T15:44:16.172Z,82.86
2023-01-30T15:54:22.009Z,82.43
2023-01-30T16:04:27.730Z,83.01
2023-01-30T16:14:31.538Z,82.34
2023-01-30T16:24:35.075Z,81.94
2023-01-30T16:34:39.639Z,82.64
2023-01-30T16:44:42.035Z,83.28
2023-01-30T16:54:47.720Z,83.70
2023-01-30T17:04:50.416Z,82.84
2023-01-30T17:15:18.623Z,82.76
2023-01-30T17:25:27.731Z,83.66
2023-01-30T17:35:31.582Z,83.19
2023-01-30T17:45:34.210Z,83.21
2023-01-30T17:55:38.691Z,82.90
2023-01-30T18:05:41.181Z,82.47
2023-01-30T18:15:45.021Z,81.55
2023-01-30T18:25:47.499Z,81.95
2023-01-30T18:35:52.711Z,82.60
2023-01-30T18:46:02.522Z,82.35
2023-01-30T18:56:07.835Z,82.31
2023-01-30T19:06:11.863Z,82.72
2023-01-30T19:16:15.686Z,82.53
2023-01-30T19:26:18.964Z,83.38
2023-01-30T19:36:23.374Z,83.64
2023-01-30T19:46:26.496Z,82.44
2023-01-30T19:56:30.682Z,83.76
2023-01-30T20:06:34.074Z,83.41
2023-01-30T20:16:37.959Z,82.94
2023-01-30T20:26:40.996Z,83.44
2023-01-30T20:36:44.798Z,83.20
2023-01-30T20:46:53.760Z,81.97
2023-01-30T20:56:57.675Z,82.71
2023-01-30T21:07:00.183Z,82.51
2023-01-30T21:17:04.010Z,82.65
2023-01-30T21:27:06.473Z,83.32
2023-01-30T21:37:27.665Z,83.16
2023-01-30T21:47:30.044Z,82.01
2023-01-30T21:57:33.874Z,82.45
2023-01-30T22:07:36.568Z,82.06
2023-01-30T22:17:40.383Z,82.58
2023-01-30T22:27:42.867Z,82.63
2023-01-30T22:37:46.659Z,81.74
2023-01-30T22:47:49.444Z,81.85
2023-01-30T22:57:53.929Z,81.83
2023-01-30T23:07:56.384Z,81.56
2023-01-30T23:18:17.700Z,82.01
2023-01-30T23:28:20.192Z,82.54
2023-01-30T23:38:24.056Z,82.24
2023-01-30T23:48:26.487Z,82.29
2023-01-30T23:58:30.501Z,81.92
